createdAt,value
2022-11-25T00:00:29.017Z,60.80
2022-11-25T00:03:20.613Z,67.20
2022-11-25T00:05:53.365Z,66.10
2022-11-25T00:08:25.976Z,47.70
2022-11-25T00:11:01.450Z,60.40
2022-11-25T00:13:33.770Z,59.50
2022-11-25T00:16:07.184Z,54.60
2022-11-25T00:18:39.101Z,55.30
2022-11-25T00:21:13.075Z,64.50
2022-11-25T00:23:44.866Z,59.60
2022-11-25T00:26:17.960Z,57.30
2022-11-25T00:28:50.283Z,47.40
2022-11-25T00:31:25.531Z,55.50
2022-11-25T00:33:57.810Z,60.90
2022-11-25T00:36:32.461Z,55.20
2022-11-25T00:39:06.425Z,53.90
2022-11-25T00:41:55.779Z,58.30
2022-11-25T00:44:37.853Z,62.30
2022-11-25T00:47:12.213Z,53.70
2022-11-25T00:52:17.265Z,58.30
2022-11-25T00:54:49.830Z,56.10
2022-11-25T00:57:24.916Z,62.20
2022-11-25T00:59:56.453Z,67.80
2022-11-25T01:02:28.054Z,58.20
2022-11-25T01:04:59.779Z,67.60
2022-11-25T01:07:31.503Z,62.50
2022-11-25T01:10:03.025Z,64.60
2022-11-25T01:12:34.523Z,69.10
2022-11-25T01:15:07.517Z,71.60
2022-11-25T01:17:39.007Z,64.00
2022-11-25T01:20:12.932Z,65.50
2022-11-25T01:22:44.555Z,59.60
2022-11-25T01:25:16.502Z,67.40
2022-11-25T01:27:48.001Z,69.50
2022-11-25T01:30:19.916Z,68.40
2022-11-25T01:32:51.443Z,70.00
2022-11-25T01:35:22.917Z,64.30
2022-11-25T01:37:54.397Z,67.30
2022-11-25T01:40:25.926Z,64.60
2022-11-25T01:42:57.441Z,65.00
2022-11-25T01:45:40.142Z,59.10
2022-11-25T01:48:18.099Z,61.20
2022-11-25T01:50:50.784Z,64.50
2022-11-25T01:53:23.140Z,57.90
2022-11-25T01:55:59.659Z,60.90
2022-11-25T01:58:35.144Z,57.80
2022-11-25T02:01:07.312Z,59.60
2022-11-25T02:03:43.072Z,61.30
2022-11-25T02:06:20.200Z,59.20
2022-11-25T02:08:55.337Z,58.70
2022-11-25T02:11:30.718Z,58.50
2022-11-25T02:14:03.606Z,62.30
2022-11-25T02:16:35.189Z,61.60
2022-11-25T02:19:07.893Z,60.90
2022-11-25T02:21:47.929Z,56.50
2022-11-25T02:24:24.194Z,62.80
2022-11-25T02:26:55.747Z,61.30
2022-11-25T02:29:28.648Z,67.50
2022-11-25T02:32:00.275Z,54.40
2022-11-25T02:34:31.929Z,65.80
2022-11-25T02:37:04.166Z,66.20
2022-11-25T02:39:35.689Z,65.30
2022-11-25T02:42:08.022Z,64.90
2022-11-25T02:44:39.521Z,64.40
2022-11-25T02:47:11.079Z,66.10
2022-11-25T02:49:42.612Z,64.40
2022-11-25T02:52:14.113Z,67.40
2022-11-25T02:54:45.578Z,62.20
2022-11-25T02:57:17.081Z,62.60
2022-11-25T02:59:48.651Z,61.00
2022-11-25T03:02:20.354Z,66.60
2022-11-25T03:04:51.827Z,69.20
2022-11-25T03:07:23.391Z,66.10
2022-11-25T03:09:55.041Z,65.60
2022-11-25T03:12:26.565Z,66.80
2022-11-25T03:14:58.109Z,65.70
2022-11-25T03:17:29.640Z,60.70
2022-11-25T03:20:01.327Z,65.80
2022-11-25T03:22:32.797Z,62.80
2022-11-25T03:25:04.901Z,60.30
2022-11-25T03:27:38.208Z,66.10
2022-11-25T03:30:13.595Z,60.10
2022-11-25T03:32:45.176Z,63.20
2022-11-25T03:35:17.627Z,64.60
2022-11-25T03:37:49.554Z,59.50
2022-11-25T03:40:21.339Z,59.80
2022-11-25T03:42:52.878Z,61.70
2022-11-25T03:45:24.475Z,58.40
2022-11-25T03:47:55.997Z,56.90
2022-11-25T03:50:27.580Z,55.50
2022-11-25T03:52:59.212Z,61.00
2022-11-25T03:55:30.778Z,59.10
2022-11-25T03:58:02.320Z,59.10
2022-11-25T04:00:34.084Z,61.80
2022-11-25T04:03:05.726Z,61.20
2022-11-25T04:05:37.401Z,54.90
2022-11-25T04:08:09.204Z,57.20
2022-11-25T04:10:40.771Z,56.30
2022-11-25T04:13:12.300Z,58.90
2022-11-25T04:15:48.655Z,54.30
2022-11-25T04:18:21.097Z,59.50
2022-11-25T04:20:52.771Z,54.50
2022-11-25T04:23:24.450Z,57.10
2022-11-25T04:25:55.997Z,53.50
2022-11-25T04:28:27.479Z,50.00
2022-11-25T04:30:59.073Z,49.80
2022-11-25T04:33:30.889Z,52.40
2022-11-25T04:36:02.538Z,53.60
2022-11-25T04:38:34.106Z,53.60
2022-11-25T04:41:05.799Z,53.40
2022-11-25T04:43:37.486Z,56.80
2022-11-25T04:46:14.727Z,57.10
2022-11-25T04:48:46.809Z,57.60
2022-11-25T04:51:18.648Z,55.60
2022-11-25T04:53:50.103Z,56.70
2022-11-25T04:56:22.268Z,57.00
2022-11-25T04:59:11.148Z,55.60
2022-11-25T05:01:42.818Z,49.50
2022-11-25T05:04:14.493Z,55.40
2022-11-25T05:06:46.174Z,58.20
2022-11-25T05:09:17.677Z,51.90
2022-11-25T05:11:49.555Z,56.30
2022-11-25T05:14:22.731Z,57.40
2022-11-25T05:16:54.477Z,53.00
2022-11-25T05:19:26.156Z,55.80
2022-11-25T05:21:57.914Z,57.70
2022-11-25T05:24:29.656Z,58.80
2022-11-25T05:27:01.417Z,61.90
2022-11-25T05:29:32.967Z,63.20
2022-11-25T05:32:04.964Z,59.10
2022-11-25T05:34:36.627Z,65.90
2022-11-25T05:37:09.441Z,65.60
2022-11-25T05:39:41.344Z,59.80
2022-11-25T05:42:12.875Z,64.10
2022-11-25T05:44:44.417Z,60.80
2022-11-25T05:47:15.929Z,58.60
2022-11-25T05:49:47.408Z,57.10
2022-11-25T05:52:18.895Z,61.90
2022-11-25T05:54:54.395Z,61.10
2022-11-25T05:57:29.203Z,56.10
2022-11-25T06:00:00.725Z,56.20
2022-11-25T06:02:32.367Z,60.20
2022-11-25T06:05:04.460Z,59.00
2022-11-25T06:07:36.039Z,63.70
2022-11-25T06:10:10.750Z,59.30
2022-11-25T06:12:42.266Z,59.20
2022-11-25T06:15:14.916Z,60.40
2022-11-25T06:17:46.917Z,59.40
2022-11-25T06:20:18.823Z,59.90
2022-11-25T06:22:50.653Z,58.70
2022-11-25T06:25:22.372Z,59.00
2022-11-25T06:30:45.878Z,65.20
2022-11-25T06:33:17.698Z,62.40
2022-11-25T06:35:49.299Z,59.90
2022-11-25T06:38:20.819Z,59.30
2022-11-25T06:40:54.139Z,55.20
2022-11-25T06:43:28.288Z,60.60
2022-11-25T06:46:04.755Z,64.50
2022-11-25T06:48:38.840Z,66.40
2022-11-25T06:51:14.928Z,61.60
2022-11-25T06:53:47.045Z,63.10
2022-11-25T06:56:21.111Z,59.10
2022-11-25T06:58:53.466Z,64.60
2022-11-25T07:01:27.176Z,63.40
2022-11-25T07:04:03.208Z,66.80
2022-11-25T07:06:35.112Z,65.70
2022-11-25T07:09:07.577Z,67.50
2022-11-25T07:11:41.073Z,64.50
2022-11-25T07:14:15.578Z,63.30
2022-11-25T07:16:48.652Z,66.90
2022-11-25T07:19:21.531Z,63.70
2022-11-25T07:21:53.118Z,58.80
2022-11-25T07:24:24.786Z,64.30
2022-11-25T07:26:56.351Z,64.40
2022-11-25T07:32:19.725Z,74.50
2022-11-25T07:34:52.789Z,74.90
2022-11-25T07:37:25.358Z,67.10
2022-11-25T07:39:56.987Z,72.00
2022-11-25T07:42:28.520Z,69.60
2022-11-25T07:45:00.407Z,68.40
2022-11-25T07:47:34.639Z,71.20
2022-11-25T07:50:07.873Z,75.70
2022-11-25T07:52:41.952Z,70.90
2022-11-25T07:55:13.621Z,74.70
2022-11-25T07:57:45.162Z,74.10
2022-11-25T08:00:18.983Z,71.90
2022-11-25T08:02:50.978Z,68.90
2022-11-25T08:05:22.653Z,80.60
2022-11-25T08:07:54.239Z,83.50
2022-11-25T08:10:25.949Z,76.50
2022-11-25T08:12:57.525Z,75.00
2022-11-25T08:15:29.143Z,73.60
2022-11-25T08:18:00.713Z,77.40
2022-11-25T08:20:32.289Z,75.50
2022-11-25T08:23:04.002Z,73.50
2022-11-25T08:25:39.948Z,77.10
2022-11-25T08:28:11.848Z,78.20
2022-11-25T08:30:43.368Z,76.00
2022-11-25T08:33:14.894Z,79.40
2022-11-25T08:35:53.625Z,78.70
2022-11-25T08:38:25.630Z,79.40
2022-11-25T08:40:57.770Z,77.00
2022-11-25T08:43:30.174Z,80.30
2022-11-25T08:46:01.726Z,77.30
2022-11-25T08:48:34.115Z,78.90
2022-11-25T08:51:11.329Z,78.30
2022-11-25T08:53:43.962Z,80.80
2022-11-25T08:56:16.158Z,78.80
2022-11-25T08:58:48.842Z,78.60
2022-11-25T09:01:21.775Z,79.70
2022-11-25T09:03:57.057Z,76.80
2022-11-25T09:06:30.181Z,75.90
2022-11-25T09:09:02.649Z,76.40
2022-11-25T09:11:34.224Z,75.70
2022-11-25T09:14:05.807Z,77.10
2022-11-25T09:16:37.618Z,68.80
2022-11-25T09:19:09.355Z,64.30
2022-11-25T09:21:40.860Z,63.70
2022-11-25T09:24:13.231Z,62.50
2022-11-25T09:26:45.214Z,64.20
2022-11-25T09:29:16.924Z,61.00
2022-11-25T09:31:54.493Z,61.50
2022-11-25T09:34:26.693Z,57.50
2022-11-25T09:36:58.244Z,58.20
2022-11-25T09:39:30.959Z,55.10
2022-11-25T09:42:40.440Z,56.20
2022-11-25T09:45:38.659Z,52.50
2022-11-25T09:48:27.361Z,55.00
2022-11-25T09:51:08.765Z,55.50
2022-11-25T09:53:47.688Z,54.50
2022-11-25T09:56:29.786Z,51.40
2022-11-25T09:59:08.301Z,51.60
2022-11-25T10:01:48.763Z,51.50
2022-11-25T10:04:26.886Z,50.90
2022-11-25T10:07:02.483Z,48.30
2022-11-25T10:09:36.884Z,46.70
2022-11-25T10:12:19.106Z,44.90
2022-11-25T10:14:55.129Z,46.60
2022-11-25T10:17:36.809Z,45.30
2022-11-25T10:20:14.032Z,45.50
2022-11-25T10:22:47.790Z,46.50
2022-11-25T10:27:58.344Z,45.70
2022-11-25T10:30:36.732Z,48.50
2022-11-25T10:33:17.877Z,49.20
2022-11-25T10:35:53.687Z,48.60
2022-11-25T10:38:31.375Z,48.30
2022-11-25T10:41:05.162Z,48.60
2022-11-25T10:46:12.502Z,46.40
2022-11-25T10:48:55.639Z,44.90
2022-11-25T10:51:42.182Z,43.80
2022-11-25T10:54:18.697Z,39.40
2022-11-25T10:56:57.612Z,40.30
2022-11-25T10:59:33.478Z,40.00
2022-11-25T11:02:22.278Z,40.50
2022-11-25T11:05:01.261Z,39.50
2022-11-25T11:07:34.546Z,40.30
2022-11-25T11:10:18.653Z,31.50
2022-11-25T11:15:32.271Z,29.90
2022-11-25T11:18:25.053Z,30.80
2022-11-25T11:21:00.552Z,32.40
2022-11-25T11:23:47.728Z,33.10
2022-11-25T11:26:26.236Z,34.00
2022-11-25T11:29:12.676Z,35.10
2022-11-25T11:31:50.039Z,33.40
2022-11-25T11:34:48.099Z,33.90
2022-11-25T11:37:37.703Z,36.50
2022-11-25T11:40:26.973Z,36.20
2022-11-25T11:43:21.507Z,38.60
2022-11-25T11:46:07.087Z,35.80
2022-11-25T11:48:41.942Z,35.70
2022-11-25T11:51:29.125Z,36.30
2022-11-25T11:54:09.426Z,36.20
2022-11-25T11:56:43.880Z,37.00
2022-11-25T11:59:49.699Z,37.40
2022-11-25T12:02:32.796Z,37.00
2022-11-25T12:05:19.630Z,37.00
2022-11-25T12:08:01.779Z,36.80
2022-11-25T12:10:38.919Z,39.10
2022-11-25T12:13:18.380Z,40.00
2022-11-25T12:15:56.367Z,39.10
2022-11-25T12:18:41.959Z,38.70
2022-11-25T12:21:28.929Z,38.80
2022-11-25T12:24:06.061Z,38.90
2022-11-25T12:26:46.878Z,38.50
2022-11-25T12:29:26.462Z,38.10
2022-11-25T12:32:04.704Z,37.20
2022-11-25T12:34:44.723Z,37.60
2022-11-25T12:37:25.084Z,38.40
2022-11-25T12:40:06.086Z,39.40
2022-11-25T12:42:41.314Z,39.80
2022-11-25T12:45:21.771Z,39.00
2022-11-25T12:47:54.405Z,41.90
2022-11-25T12:50:39.083Z,40.40
2022-11-25T12:53:17.488Z,41.90
2022-11-25T12:55:48.993Z,40.40
2022-11-25T12:58:40.789Z,38.60
2022-11-25T13:01:26.935Z,38.30
2022-11-25T13:04:30.716Z,36.60
2022-11-25T13:07:25.024Z,36.90
2022-11-25T13:13:18.258Z,35.90
2022-11-25T13:15:53.411Z,37.30
2022-11-25T13:18:28.101Z,35.90
2022-11-25T13:21:09.397Z,37.50
2022-11-25T13:23:49.777Z,38.90
2022-11-25T13:26:51.630Z,39.60
2022-11-25T13:30:01.201Z,39.90
2022-11-25T13:32:40.195Z,39.10
2022-11-25T13:35:35.874Z,39.40
2022-11-25T13:38:47.854Z,39.90
2022-11-25T13:41:37.853Z,40.30
2022-11-25T13:44:28.191Z,39.00
2022-11-25T13:47:02.901Z,38.70
2022-11-25T13:49:44.284Z,40.00
2022-11-25T13:52:41.793Z,38.90
2022-11-25T13:55:32.995Z,39.90
2022-11-25T13:58:15.621Z,39.60
2022-11-25T14:01:05.930Z,38.20
2022-11-25T14:04:00.154Z,38.70
2022-11-25T14:07:02.857Z,39.80
2022-11-25T14:09:58.126Z,41.80
2022-11-25T14:12:49.299Z,45.10
2022-11-25T14:15:48.886Z,43.90
2022-11-25T14:19:16.939Z,48.50
2022-11-25T14:21:56.401Z,56.60
2022-11-25T14:24:38.263Z,55.90
2022-11-25T14:27:17.776Z,54.20
2022-11-25T14:29:53.955Z,62.50
2022-11-25T14:32:30.361Z,71.40
2022-11-25T14:35:09.320Z,58.00
2022-11-25T14:37:47.236Z,56.40
2022-11-25T14:40:23.033Z,67.10
2022-11-25T14:43:00.496Z,57.00
2022-11-25T14:45:34.444Z,50.80
2022-11-25T14:48:18.272Z,51.10
2022-11-25T14:51:00.733Z,50.20
2022-11-25T14:53:43.007Z,46.70
2022-11-25T14:56:25.091Z,49.00
2022-11-25T14:58:58.873Z,47.60
2022-11-25T15:04:14.821Z,47.50
2022-11-25T15:06:52.519Z,48.50
2022-11-25T15:09:26.860Z,49.80
2022-11-25T15:12:02.270Z,49.50
2022-11-25T15:14:37.496Z,48.90
2022-11-25T15:17:21.653Z,51.90
2022-11-25T15:19:54.752Z,50.00
2022-11-25T15:22:26.562Z,51.40
2022-11-25T15:25:09.960Z,48.00
2022-11-25T15:27:46.939Z,48.70
2022-11-25T15:30:24.687Z,51.70
2022-11-25T15:32:57.557Z,50.70
2022-11-25T15:35:30.459Z,51.60
2022-11-25T15:38:17.263Z,52.20
2022-11-25T15:40:57.584Z,54.30
2022-11-25T15:43:31.740Z,52.50
2022-11-25T15:46:06.300Z,49.80
2022-11-25T15:48:42.209Z,50.70
2022-11-25T15:51:26.148Z,49.40
2022-11-25T15:54:03.013Z,49.10
2022-11-25T15:56:38.797Z,50.60
2022-11-25T15:59:42.708Z,48.70
2022-11-25T16:02:39.586Z,46.00
2022-11-25T16:05:31.996Z,49.40
2022-11-25T16:08:24.669Z,48.00
2022-11-25T16:11:01.018Z,49.70
2022-11-25T16:13:40.155Z,50.30
2022-11-25T16:16:21.498Z,49.80
2022-11-25T16:19:12.722Z,49.00
2022-11-25T16:21:51.081Z,46.70
2022-11-25T16:24:35.244Z,47.90
2022-11-25T16:27:15.094Z,47.70
2022-11-25T16:29:54.378Z,53.00
2022-11-25T16:32:28.000Z,54.20
2022-11-25T16:35:12.653Z,54.00
2022-11-25T16:40:39.196Z,51.10
2022-11-25T16:43:18.709Z,54.20
2022-11-25T16:45:53.079Z,50.20
2022-11-25T16:48:25.645Z,52.40
2022-11-25T16:50:58.433Z,51.50
2022-11-25T16:53:30.096Z,52.00
2022-11-25T16:56:02.999Z,52.30
2022-11-25T16:58:34.552Z,59.90
2022-11-25T17:01:06.606Z,55.00
2022-11-25T17:03:38.404Z,56.20
2022-11-25T17:06:21.717Z,54.10
2022-11-25T17:08:54.165Z,60.20
2022-11-25T17:11:30.440Z,59.00
2022-11-25T17:14:05.107Z,60.00
2022-11-25T17:16:37.179Z,67.30
2022-11-25T17:19:13.997Z,66.90
2022-11-25T17:21:46.164Z,59.80
2022-11-25T17:24:21.431Z,62.10
2022-11-25T17:26:57.216Z,60.60
2022-11-25T17:29:35.472Z,62.40
2022-11-25T17:32:08.195Z,77.00
2022-11-25T17:34:40.136Z,75.80
2022-11-25T17:37:18.058Z,75.30
2022-11-25T17:39:50.523Z,76.20
2022-11-25T17:42:28.691Z,102.70
2022-11-25T17:45:01.319Z,99.50
2022-11-25T17:47:33.043Z,92.10
2022-11-25T17:50:06.654Z,83.80
2022-11-25T17:52:38.271Z,82.30
2022-11-25T17:55:10.963Z,82.60
2022-11-25T17:57:42.648Z,79.00
2022-11-25T18:00:18.923Z,84.00
2022-11-25T18:02:51.193Z,92.70
2022-11-25T18:05:25.153Z,91.60
2022-11-25T18:07:56.984Z,94.50
2022-11-25T18:10:30.385Z,93.50
2022-11-25T18:13:03.669Z,95.90
2022-11-25T18:15:35.809Z,95.20
2022-11-25T18:18:23.439Z,99.60
2022-11-25T18:20:55.938Z,97.80
2022-11-25T18:23:27.594Z,100.70
2022-11-25T18:26:02.168Z,98.60
2022-11-25T18:28:34.432Z,100.90
2022-11-25T18:31:07.916Z,96.90
2022-11-25T18:33:40.612Z,98.40
2022-11-25T18:36:15.284Z,99.20
2022-11-25T18:38:48.309Z,97.30
2022-11-25T18:41:22.880Z,97.90
2022-11-25T18:43:54.740Z,97.90
2022-11-25T18:46:26.699Z,99.40
2022-11-25T18:48:58.296Z,95.40
2022-11-25T18:51:29.894Z,96.60
2022-11-25T18:54:01.553Z,90.60
2022-11-25T18:56:33.859Z,91.50
2022-11-25T18:59:17.666Z,92.00
2022-11-25T19:01:50.138Z,91.30
2022-11-25T19:04:21.748Z,92.80
2022-11-25T19:06:53.594Z,91.50
2022-11-25T19:09:25.058Z,93.70
2022-11-25T19:11:56.930Z,94.60
2022-11-25T19:14:33.248Z,100.30
2022-11-25T19:17:08.971Z,96.30
2022-11-25T19:19:42.642Z,101.40
2022-11-25T19:22:17.696Z,101.90
2022-11-25T19:24:50.286Z,101.20
2022-11-25T19:27:24.613Z,95.60
2022-11-25T19:29:56.133Z,96.60
2022-11-25T19:32:29.872Z,99.40
2022-11-25T19:37:34.273Z,96.30
2022-11-25T19:40:15.653Z,99.40
2022-11-25T19:42:48.510Z,73.10
2022-11-25T19:45:21.692Z,63.50
2022-11-25T19:47:54.388Z,55.70
2022-11-25T19:50:29.590Z,54.50
2022-11-25T19:53:01.271Z,54.20
2022-11-25T19:55:33.979Z,55.50
2022-11-25T19:58:05.472Z,49.60
2022-11-25T20:00:37.062Z,50.50
2022-11-25T20:03:17.592Z,51.00
2022-11-25T20:05:49.964Z,48.40
2022-11-25T20:08:25.315Z,49.20
2022-11-25T20:10:57.970Z,48.70
2022-11-25T20:13:29.714Z,52.00
2022-11-25T20:16:01.606Z,51.60
2022-11-25T20:18:40.930Z,53.90
2022-11-25T20:21:21.883Z,62.80
2022-11-25T20:23:54.061Z,61.20
2022-11-25T20:26:30.561Z,61.70
2022-11-25T20:29:02.281Z,65.70
2022-11-25T20:31:33.886Z,64.80
2022-11-25T20:34:05.424Z,62.30
2022-11-25T20:36:37.109Z,60.90
2022-11-25T20:39:08.861Z,60.10
2022-11-25T20:41:40.358Z,68.50
2022-11-25T20:44:14.901Z,80.60
2022-11-25T20:46:46.456Z,72.60
2022-11-25T20:49:25.729Z,77.10
2022-11-25T20:51:57.863Z,72.80
2022-11-25T20:54:32.893Z,79.40
2022-11-25T20:57:04.479Z,77.60
2022-11-25T20:59:37.190Z,77.80
2022-11-25T21:02:09.100Z,81.10
2022-11-25T21:04:41.016Z,90.60
2022-11-25T21:07:17.717Z,80.90
2022-11-25T21:09:51.798Z,87.00
2022-11-25T21:12:23.252Z,101.20
2022-11-25T21:14:54.912Z,92.50
2022-11-25T21:17:26.884Z,90.10
2022-11-25T21:22:30.040Z,89.80
2022-11-25T21:25:01.645Z,92.20
2022-11-25T21:27:34.169Z,94.60
2022-11-25T21:30:07.093Z,94.80
2022-11-25T21:32:38.673Z,101.30
2022-11-25T21:35:11.848Z,100.70
2022-11-25T21:37:45.562Z,85.90
2022-11-25T21:40:32.596Z,94.40
2022-11-25T21:43:06.800Z,96.20
2022-11-25T21:45:38.473Z,100.20
2022-11-25T21:48:20.961Z,95.00
2022-11-25T21:50:52.780Z,96.00
2022-11-25T21:53:24.410Z,94.70
2022-11-25T21:55:56.512Z,96.70
2022-11-25T21:58:30.416Z,99.10
2022-11-25T22:01:03.052Z,96.60
2022-11-25T22:03:35.188Z,99.60
2022-11-25T22:06:23.281Z,98.90
2022-11-25T22:08:55.324Z,94.80
2022-11-25T22:11:31.718Z,92.30
2022-11-25T22:14:06.485Z,93.80
2022-11-25T22:16:38.491Z,94.60
2022-11-25T22:19:19.269Z,90.00
2022-11-25T22:21:50.917Z,87.50
2022-11-25T22:24:23.256Z,87.00
2022-11-25T22:26:58.130Z,83.20
2022-11-25T22:29:35.310Z,80.00
2022-11-25T22:32:12.581Z,77.90
2022-11-25T22:34:44.893Z,74.90
2022-11-25T22:37:22.090Z,71.60
2022-11-25T22:39:53.604Z,73.80
2022-11-25T22:42:28.100Z,75.60
2022-11-25T22:45:01.800Z,75.00
2022-11-25T22:47:40.517Z,76.40
2022-11-25T22:50:22.120Z,79.30
2022-11-25T22:52:55.146Z,76.60
2022-11-25T22:55:28.983Z,81.90
2022-11-25T23:00:37.494Z,69.20
2022-11-25T23:03:16.893Z,65.70
2022-11-25T23:05:49.964Z,63.60
2022-11-25T23:08:23.515Z,63.30
2022-11-25T23:10:56.124Z,63.60
2022-11-25T23:13:27.879Z,59.30
2022-11-25T23:16:01.679Z,67.10
2022-11-25T23:18:38.873Z,67.90
2022-11-25T23:21:17.737Z,68.80
2022-11-25T23:23:49.314Z,68.10
2022-11-25T23:26:20.821Z,70.60
2022-11-25T23:28:52.418Z,70.50
2022-11-25T23:31:25.518Z,68.80
2022-11-25T23:33:57.185Z,67.30
2022-11-25T23:36:36.762Z,65.00
2022-11-25T23:39:16.126Z,63.20
2022-11-25T23:41:48.750Z,62.80
2022-11-25T23:44:25.715Z,59.90
2022-11-25T23:47:00.956Z,60.60
2022-11-25T23:49:36.896Z,59.10
2022-11-25T23:52:12.994Z,61.60
2022-11-25T23:54:48.884Z,62.60
2022-11-25T23:57:23.563Z,67.80
2022-11-25T23:59:55.241Z,67.70
